createdAt,value
2019-05-06T00:01:49.374Z,62.59
2019-05-06T00:04:21.238Z,62.23
2019-05-06T00:06:54.787Z,64.09
2019-05-06T00:09:26.684Z,63.65
2019-05-06T00:11:58.556Z,62.42
2019-05-06T00:14:30.422Z,63.25
2019-05-06T00:17:03.856Z,63.94
2019-05-06T00:19:35.948Z,63.83
2019-05-06T00:22:07.854Z,63.51
2019-05-06T00:24:46.032Z,63.45
2019-05-06T00:27:27.175Z,63.72
2019-05-06T00:29:59.059Z,63.50
2019-05-06T00:32:31.961Z,63.22
2019-05-06T00:35:04.554Z,64.09
2019-05-06T00:37:36.566Z,64.75
2019-05-06T00:40:17.921Z,64.38
2019-05-06T00:43:04.679Z,64.37
2019-05-06T00:45:36.058Z,64.58
2019-05-06T00:48:07.960Z,64.83
2019-05-06T00:50:39.775Z,65.65
2019-05-06T00:53:14.175Z,64.96
2019-05-06T00:55:46.130Z,64.79
2019-05-06T00:58:17.929Z,65.59
2019-05-06T01:00:49.786Z,65.22
2019-05-06T01:03:23.648Z,65.51
2019-05-06T01:05:55.520Z,65.45
2019-05-06T01:08:27.931Z,65.41
2019-05-06T01:10:59.814Z,66.23
2019-05-06T01:14:05.682Z,65.48
2019-05-06T01:16:37.890Z,65.53
2019-05-06T01:19:10.912Z,65.42
2019-05-06T01:21:44.699Z,65.24
2019-05-06T01:24:16.742Z,65.37
2019-05-06T01:26:49.520Z,66.64
2019-05-06T01:29:21.418Z,66.22
2019-05-06T01:31:54.451Z,65.51
2019-05-06T01:34:26.474Z,66.17
2019-05-06T01:36:58.352Z,66.37
2019-05-06T01:39:53.762Z,65.40
2019-05-06T01:42:36.115Z,65.34
2019-05-06T01:45:09.007Z,66.48
2019-05-06T01:47:40.918Z,65.69
2019-05-06T01:50:14.018Z,66.27
2019-05-06T01:52:46.184Z,66.23
2019-05-06T01:55:18.067Z,66.44
2019-05-06T01:57:49.957Z,67.37
2019-05-06T02:00:23.696Z,66.67
2019-05-06T02:02:55.592Z,66.91
2019-05-06T02:05:27.493Z,66.58
2019-05-06T02:07:59.304Z,66.01
2019-05-06T02:10:31.178Z,67.18
2019-05-06T02:13:03.867Z,67.79
2019-05-06T02:15:36.963Z,66.57
2019-05-06T02:18:09.061Z,66.88
2019-05-06T02:20:44.523Z,66.88
2019-05-06T02:23:20.252Z,66.56
2019-05-06T02:26:01.063Z,67.13
2019-05-06T02:28:34.462Z,66.03
2019-05-06T02:31:25.862Z,66.52
2019-05-06T02:34:25.860Z,66.71
2019-05-06T02:37:16.660Z,66.32
2019-05-06T02:39:48.532Z,66.97
2019-05-06T02:42:20.339Z,67.11
2019-05-06T02:44:54.163Z,66.40
2019-05-06T02:47:47.725Z,65.74
2019-05-06T02:50:23.923Z,65.23
2019-05-06T02:52:55.939Z,66.24
2019-05-06T02:55:27.742Z,67.16
2019-05-06T02:58:02.665Z,66.89
2019-05-06T03:00:33.163Z,66.51
2019-05-06T03:03:05.069Z,66.29
2019-05-06T03:05:36.946Z,66.91
2019-05-06T03:08:08.926Z,66.86
2019-05-06T03:10:43.830Z,66.66
2019-05-06T03:13:14.686Z,66.93
2019-05-06T03:15:46.546Z,66.63
2019-05-06T03:18:18.423Z,66.05
2019-05-06T03:21:07.690Z,65.36
2019-05-06T03:23:43.781Z,65.14
2019-05-06T03:26:16.886Z,65.43
2019-05-06T03:28:48.978Z,66.25
2019-05-06T03:31:25.247Z,66.98
2019-05-06T03:34:16.048Z,66.58
2019-05-06T03:36:39.202Z,66.49
2019-05-06T03:39:03.163Z,67.17
2019-05-06T03:41:36.621Z,67.24
2019-05-06T03:44:08.513Z,67.32
2019-05-06T03:46:57.690Z,66.84
2019-05-06T03:49:33.898Z,67.22
2019-05-06T03:52:05.081Z,67.74
2019-05-06T03:54:37.053Z,67.76
2019-05-06T03:57:09.077Z,67.79
2019-05-06T03:59:43.603Z,67.35
2019-05-06T04:02:16.107Z,67.85
2019-05-06T04:04:47.986Z,67.69
2019-05-06T04:07:23.132Z,67.38
2019-05-06T04:09:53.993Z,67.69
2019-05-06T04:12:26.270Z,67.73
2019-05-06T04:14:58.151Z,66.94
2019-05-06T04:17:43.891Z,66.38
2019-05-06T04:20:34.275Z,66.31
2019-05-06T04:23:14.436Z,65.96
2019-05-06T04:25:57.969Z,66.17
2019-05-06T04:28:34.196Z,66.58
2019-05-06T04:31:06.502Z,67.20
2019-05-06T04:33:38.461Z,66.99
2019-05-06T04:36:12.988Z,66.71
2019-05-06T04:38:44.040Z,66.78
2019-05-06T04:41:15.945Z,66.93
2019-05-06T04:43:47.774Z,67.09
2019-05-06T04:46:19.739Z,66.64
2019-05-06T04:48:53.801Z,66.60
2019-05-06T04:51:25.507Z,66.40
2019-05-06T04:53:58.287Z,65.33
2019-05-06T04:56:33.238Z,64.52
2019-05-06T04:59:06.296Z,64.20
2019-05-06T05:01:39.307Z,63.76
2019-05-06T05:04:26.900Z,63.33
2019-05-06T05:06:45.754Z,64.18
2019-05-06T05:09:17.712Z,64.52
2019-05-06T05:11:56.975Z,64.44
2019-05-06T05:14:45.805Z,64.26
2019-05-06T05:17:37.838Z,65.04
2019-05-06T05:20:12.673Z,65.38
2019-05-06T05:22:47.870Z,65.04
2019-05-06T05:25:19.712Z,64.49
2019-05-06T05:27:52.851Z,64.67
2019-05-06T05:30:25.716Z,65.03
2019-05-06T05:32:57.581Z,63.94
2019-05-06T05:35:29.640Z,64.19
2019-05-06T05:38:03.058Z,64.60
2019-05-06T05:40:34.981Z,64.14
2019-05-06T05:43:22.872Z,62.64
2019-05-06T05:45:55.811Z,63.14
2019-05-06T05:48:43.571Z,62.73
2019-05-06T05:51:15.423Z,63.28
2019-05-06T05:53:47.219Z,62.78
2019-05-06T05:56:19.009Z,62.18
2019-05-06T05:58:53.269Z,62.37
2019-05-06T06:01:25.470Z,62.00
2019-05-06T06:03:57.431Z,62.51
2019-05-06T06:06:29.285Z,61.37
2019-05-06T06:09:03.050Z,61.98
2019-05-06T06:11:45.767Z,61.75
2019-05-06T06:14:56.019Z,65.33
2019-05-06T06:17:48.062Z,64.19
2019-05-06T06:20:37.581Z,62.74
2019-05-06T06:23:15.319Z,63.11
2019-05-06T06:25:47.211Z,61.88
2019-05-06T06:28:18.979Z,61.92
2019-05-06T06:30:58.008Z,60.03
2019-05-06T06:33:30.768Z,57.92
2019-05-06T06:36:12.263Z,56.28
2019-05-06T06:39:08.102Z,55.89
2019-05-06T06:41:42.244Z,55.19
2019-05-06T06:44:17.974Z,53.29
2019-05-06T06:46:52.398Z,52.89
2019-05-06T06:49:24.532Z,53.82
2019-05-06T06:51:56.431Z,51.74
2019-05-06T06:54:28.368Z,50.06
2019-05-06T06:57:12.603Z,51.63
2019-05-06T07:00:09.562Z,50.68
2019-05-06T07:02:52.509Z,51.38
2019-05-06T07:05:42.323Z,50.55
2019-05-06T07:08:15.353Z,50.39
2019-05-06T07:10:47.207Z,48.66
2019-05-06T07:13:19.272Z,49.23
2019-05-06T07:15:52.695Z,50.73
2019-05-06T07:18:25.016Z,48.38
2019-05-06T07:21:34.088Z,46.35
2019-05-06T07:24:05.063Z,47.56
2019-05-06T07:26:48.337Z,47.68
2019-05-06T07:29:25.732Z,48.21
2019-05-06T07:31:53.706Z,48.59
2019-05-06T07:34:26.680Z,51.68
2019-05-06T07:36:58.797Z,50.91
2019-05-06T07:39:33.191Z,49.78
2019-05-06T07:42:07.983Z,47.69
2019-05-06T07:44:52.901Z,48.75
2019-05-06T07:47:37.150Z,48.36
2019-05-06T07:50:10.114Z,46.58
2019-05-06T07:52:44.677Z,46.81
2019-05-06T07:55:16.578Z,46.63
2019-05-06T07:57:50.613Z,47.51
2019-05-06T08:00:23.000Z,45.02
2019-05-06T08:02:54.992Z,45.09
2019-05-06T08:05:26.854Z,42.42
2019-05-06T08:07:58.727Z,43.04
2019-05-06T08:10:32.906Z,41.71
2019-05-06T08:13:04.262Z,41.39
2019-05-06T08:15:36.159Z,40.31
2019-05-06T08:18:08.584Z,40.77
2019-05-06T08:20:42.641Z,40.11
2019-05-06T08:23:35.732Z,42.33
2019-05-06T08:26:12.823Z,39.68
2019-05-06T08:28:44.493Z,39.93
2019-05-06T08:31:17.209Z,39.67
2019-05-06T08:33:49.077Z,40.53
2019-05-06T08:36:28.393Z,40.34
2019-05-06T08:39:02.446Z,40.35
2019-05-06T08:41:35.424Z,39.72
2019-05-06T08:44:07.407Z,38.70
2019-05-06T08:46:39.398Z,39.11
2019-05-06T08:49:12.316Z,37.22
2019-05-06T08:51:54.316Z,37.28
2019-05-06T08:54:39.719Z,36.43
2019-05-06T08:57:11.976Z,37.86
2019-05-06T08:59:43.865Z,35.53
2019-05-06T09:02:16.325Z,36.51
2019-05-06T09:04:48.312Z,37.96
2019-05-06T09:07:20.201Z,38.36
2019-05-06T09:09:52.723Z,39.67
2019-05-06T09:12:24.652Z,39.81
2019-05-06T09:14:56.542Z,43.13
2019-05-06T09:17:28.363Z,39.68
2019-05-06T09:20:02.494Z,39.62
2019-05-06T09:22:33.830Z,37.59
2019-05-06T09:25:06.016Z,39.21
2019-05-06T09:27:52.744Z,40.15
2019-05-06T09:30:37.532Z,38.68
2019-05-06T09:33:09.517Z,36.56
2019-05-06T09:35:42.248Z,37.83
2019-05-06T09:38:15.274Z,36.28
2019-05-06T09:40:47.140Z,34.54
2019-05-06T09:43:19.049Z,36.15
2019-05-06T09:45:52.932Z,35.51
2019-05-06T09:48:33.853Z,38.19
2019-05-06T09:51:05.742Z,37.55
2019-05-06T09:54:00.245Z,37.57
2019-05-06T09:56:35.186Z,36.12
2019-05-06T09:59:07.244Z,37.27
2019-05-06T10:01:39.435Z,38.26
2019-05-06T10:04:13.139Z,37.37
2019-05-06T10:06:56.201Z,34.87
2019-05-06T10:09:19.880Z,35.83
2019-05-06T10:11:52.535Z,33.74
2019-05-06T10:14:25.057Z,36.36
2019-05-06T10:16:56.967Z,36.39
2019-05-06T10:19:28.991Z,37.15
2019-05-06T10:22:03.425Z,36.71
2019-05-06T10:24:34.459Z,36.72
2019-05-06T10:27:06.350Z,36.44
2019-05-06T10:29:57.382Z,35.42
2019-05-06T10:32:37.601Z,36.96
2019-05-06T10:35:10.502Z,36.69
2019-05-06T10:37:56.177Z,37.76
2019-05-06T10:40:32.909Z,38.98
2019-05-06T10:43:27.772Z,39.27
2019-05-06T10:46:01.829Z,38.41
2019-05-06T10:48:33.267Z,38.87
2019-05-06T10:51:16.769Z,38.42
2019-05-06T10:53:46.710Z,38.77
2019-05-06T10:56:53.800Z,34.87
2019-05-06T10:59:18.244Z,36.30
2019-05-06T11:01:51.630Z,37.44
2019-05-06T11:04:23.524Z,37.98
2019-05-06T11:06:56.213Z,38.25
2019-05-06T11:09:28.107Z,38.41
2019-05-06T11:12:00.038Z,38.86
2019-05-06T11:14:32.908Z,39.37
2019-05-06T11:17:05.285Z,40.18
2019-05-06T11:19:38.215Z,40.85
2019-05-06T11:22:10.031Z,41.35
2019-05-06T11:24:42.335Z,40.67
2019-05-06T11:27:27.469Z,41.50
2019-05-06T11:29:49.968Z,41.51
2019-05-06T11:32:44.708Z,42.28
2019-05-06T11:35:26.167Z,41.31
2019-05-06T11:38:04.267Z,40.97
2019-05-06T11:40:36.146Z,41.22
2019-05-06T11:43:08.023Z,40.61
2019-05-06T11:45:39.935Z,41.05
2019-05-06T11:48:14.292Z,39.86
2019-05-06T11:50:47.162Z,40.60
2019-05-06T11:53:18.969Z,40.18
2019-05-06T11:55:54.401Z,40.75
2019-05-06T11:58:42.974Z,41.15
2019-05-06T12:01:20.038Z,40.41
2019-05-06T12:03:52.286Z,39.83
2019-05-06T12:06:24.211Z,39.88
2019-05-06T12:08:56.154Z,39.03
2019-05-06T12:11:28.021Z,40.33
2019-05-06T12:13:59.918Z,39.59
2019-05-06T12:16:33.158Z,39.84
2019-05-06T12:19:05.487Z,39.62
2019-05-06T12:21:37.572Z,40.20
2019-05-06T12:24:12.092Z,39.64
2019-05-06T12:26:43.491Z,40.41
2019-05-06T12:29:15.506Z,39.98
2019-05-06T12:31:52.948Z,39.68
2019-05-06T12:34:24.939Z,39.00
2019-05-06T12:36:59.509Z,39.46
2019-05-06T12:39:33.158Z,39.66
2019-05-06T12:42:12.275Z,39.23
2019-05-06T12:44:53.029Z,39.99
2019-05-06T12:47:32.927Z,40.32
2019-05-06T12:50:06.472Z,39.88
2019-05-06T12:52:38.358Z,39.25
2019-05-06T12:55:18.238Z,37.74
2019-05-06T12:57:43.983Z,36.50
2019-05-06T13:00:16.415Z,36.22
2019-05-06T13:02:48.315Z,35.51
2019-05-06T13:05:20.180Z,35.30
2019-05-06T13:07:52.786Z,35.11
2019-05-06T13:10:24.707Z,34.71
2019-05-06T13:13:04.874Z,35.50
2019-05-06T13:15:37.018Z,33.43
2019-05-06T13:18:10.520Z,33.43
2019-05-06T13:20:50.042Z,33.54
2019-05-06T13:23:36.746Z,31.89
2019-05-06T13:26:09.265Z,32.07
2019-05-06T13:28:44.601Z,31.46
2019-05-06T13:31:21.318Z,32.08
2019-05-06T13:33:54.458Z,31.89
2019-05-06T13:36:26.730Z,31.26
2019-05-06T13:39:13.279Z,30.18
2019-05-06T13:41:33.872Z,31.54
2019-05-06T13:44:32.015Z,31.54
2019-05-06T13:47:04.720Z,32.79
2019-05-06T13:49:53.307Z,32.04
2019-05-06T13:52:26.853Z,32.19
2019-05-06T13:54:58.662Z,30.93
2019-05-06T13:57:32.057Z,30.93
2019-05-06T14:00:04.473Z,29.58
2019-05-06T14:02:57.072Z,30.07
2019-05-06T14:05:28.956Z,29.62
2019-05-06T14:08:04.166Z,30.11
2019-05-06T14:10:34.509Z,30.03
2019-05-06T14:13:06.391Z,29.99
2019-05-06T14:15:38.280Z,29.06
2019-05-06T14:18:10.359Z,29.24
2019-05-06T14:20:42.964Z,28.23
2019-05-06T14:23:14.915Z,28.23
2019-05-06T14:26:04.407Z,28.69
2019-05-06T14:28:43.019Z,29.01
2019-05-06T14:31:33.346Z,28.86
2019-05-06T14:34:05.214Z,28.86
2019-05-06T14:36:37.077Z,29.32
2019-05-06T14:39:15.275Z,28.60
2019-05-06T14:41:48.900Z,29.80
2019-05-06T14:44:23.075Z,27.31
2019-05-06T14:47:02.996Z,26.31
2019-05-06T14:49:34.871Z,25.36
2019-05-06T14:52:06.680Z,25.36
2019-05-06T14:54:53.278Z,26.05
2019-05-06T14:57:25.260Z,25.99
2019-05-06T14:59:57.112Z,22.98
2019-05-06T15:02:29.049Z,21.63
2019-05-06T15:05:02.941Z,21.92
2019-05-06T15:07:34.494Z,22.55
2019-05-06T15:10:19.185Z,21.97
2019-05-06T15:12:42.662Z,21.86
2019-05-06T15:15:14.207Z,21.62
2019-05-06T15:17:46.082Z,21.41
2019-05-06T15:20:18.966Z,22.50
2019-05-06T15:22:52.853Z,23.22
2019-05-06T15:25:24.987Z,23.31
2019-05-06T15:27:56.877Z,22.21
2019-05-06T15:30:38.666Z,22.18
2019-05-06T15:33:13.259Z,20.41
2019-05-06T15:36:02.567Z,19.95
2019-05-06T15:38:35.762Z,20.26
2019-05-06T15:41:08.649Z,20.87
2019-05-06T15:43:41.526Z,20.25
2019-05-06T15:46:14.408Z,21.02
2019-05-06T15:48:47.923Z,22.51
2019-05-06T15:51:22.336Z,22.00
2019-05-06T15:53:54.281Z,21.07
2019-05-06T15:56:27.262Z,21.29
2019-05-06T15:58:59.187Z,20.83
2019-05-06T16:01:34.033Z,19.94
2019-05-06T16:04:05.353Z,20.46
2019-05-06T16:06:37.250Z,21.34
2019-05-06T16:09:09.556Z,20.74
2019-05-06T16:11:44.701Z,21.72
2019-05-06T16:14:16.336Z,21.77
2019-05-06T16:16:48.202Z,23.10
2019-05-06T16:19:22.568Z,23.77
2019-05-06T16:21:55.153Z,23.85
2019-05-06T16:24:35.161Z,25.27
2019-05-06T16:27:06.747Z,26.39
2019-05-06T16:29:42.651Z,26.95
2019-05-06T16:32:13.232Z,26.59
2019-05-06T16:34:45.107Z,27.47
2019-05-06T16:37:16.983Z,27.68
2019-05-06T16:39:48.879Z,28.74
2019-05-06T16:42:22.470Z,28.06
2019-05-06T16:44:54.491Z,28.49
2019-05-06T16:47:38.647Z,27.81
2019-05-06T16:50:13.180Z,28.03
2019-05-06T16:52:45.900Z,29.44
2019-05-06T16:55:24.387Z,29.85
2019-05-06T16:58:04.474Z,29.40
2019-05-06T17:00:37.740Z,30.12
2019-05-06T17:03:18.569Z,30.47
2019-05-06T17:06:09.636Z,30.64
2019-05-06T17:08:42.477Z,30.94
2019-05-06T17:11:26.969Z,31.04
2019-05-06T17:13:48.092Z,31.38
2019-05-06T17:16:22.022Z,31.34
2019-05-06T17:18:56.336Z,32.03
2019-05-06T17:21:27.096Z,31.74
2019-05-06T17:23:58.975Z,31.94
2019-05-06T17:26:31.212Z,31.80
2019-05-06T17:29:37.071Z,32.17
2019-05-06T17:32:26.709Z,32.02
2019-05-06T17:34:58.613Z,32.10
2019-05-06T17:38:07.589Z,32.39
2019-05-06T17:40:39.580Z,32.39
2019-05-06T17:43:13.023Z,32.27
2019-05-06T17:45:59.305Z,32.76
2019-05-06T17:48:38.813Z,33.33
2019-05-06T17:51:18.596Z,33.29
2019-05-06T17:53:52.739Z,33.52
2019-05-06T17:56:24.687Z,33.06
2019-05-06T17:58:56.971Z,34.46
2019-05-06T18:01:34.034Z,33.68
2019-05-06T18:04:06.410Z,33.77
2019-05-06T18:06:38.292Z,33.88
2019-05-06T18:09:12.632Z,34.19
2019-05-06T18:11:57.783Z,34.33
2019-05-06T18:14:19.295Z,34.85
2019-05-06T18:16:53.629Z,34.96
2019-05-06T18:19:24.714Z,35.65
2019-05-06T18:21:56.530Z,36.04
2019-05-06T18:24:28.421Z,37.11
2019-05-06T18:27:02.478Z,37.43
2019-05-06T18:29:33.985Z,37.74
2019-05-06T18:32:05.879Z,38.87
2019-05-06T18:34:37.687Z,39.08
2019-05-06T18:37:09.737Z,39.15
2019-05-06T18:39:42.528Z,39.40
2019-05-06T18:42:19.844Z,39.68
2019-05-06T18:44:48.132Z,39.51
2019-05-06T18:47:20.014Z,39.36
2019-05-06T18:49:52.461Z,38.84
2019-05-06T18:52:24.441Z,39.96
2019-05-06T18:54:56.331Z,39.58
2019-05-06T18:57:28.164Z,42.94
2019-05-06T19:00:00.107Z,43.90
2019-05-06T19:02:31.989Z,42.65
2019-05-06T19:05:13.056Z,45.14
2019-05-06T19:07:46.952Z,43.62
2019-05-06T19:10:22.498Z,44.01
2019-05-06T19:12:54.335Z,44.71
2019-05-06T19:15:26.382Z,45.05
2019-05-06T19:17:58.281Z,45.67
2019-05-06T19:20:30.214Z,45.64
2019-05-06T19:23:02.656Z,45.99
2019-05-06T19:25:34.821Z,44.46
2019-05-06T19:28:06.770Z,44.85
2019-05-06T19:30:38.972Z,44.80
2019-05-06T19:33:12.368Z,45.43
2019-05-06T19:35:48.492Z,45.13
2019-05-06T19:38:23.870Z,45.64
2019-05-06T19:40:54.337Z,45.25
2019-05-06T19:43:29.882Z,45.64
2019-05-06T19:46:02.596Z,45.81
2019-05-06T19:48:35.047Z,45.54
2019-05-06T19:51:06.978Z,45.28
2019-05-06T19:53:42.710Z,45.58
2019-05-06T19:56:14.047Z,45.83
2019-05-06T19:58:46.073Z,46.05
2019-05-06T20:01:18.109Z,45.19
2019-05-06T20:03:52.489Z,45.35
2019-05-06T20:06:39.808Z,45.44
2019-05-06T20:09:39.775Z,45.85
2019-05-06T20:12:18.056Z,45.67
2019-05-06T20:14:52.469Z,45.69
2019-05-06T20:17:24.953Z,45.79
2019-05-06T20:19:56.842Z,45.75
2019-05-06T20:22:28.707Z,45.92
2019-05-06T20:25:02.924Z,45.89
2019-05-06T20:27:34.327Z,45.98
2019-05-06T20:30:07.135Z,46.14
2019-05-06T20:32:39.756Z,45.91
2019-05-06T20:35:13.066Z,46.17
2019-05-06T20:37:45.078Z,46.13
2019-05-06T20:40:18.040Z,45.56
2019-05-06T20:42:51.708Z,45.49
2019-05-06T20:45:23.613Z,45.88
2019-05-06T20:47:55.628Z,45.37
2019-05-06T20:50:28.785Z,45.67
2019-05-06T20:53:00.686Z,45.86
2019-05-06T20:55:35.590Z,46.12
2019-05-06T20:58:07.630Z,46.68
2019-05-06T21:00:40.042Z,46.19
2019-05-06T21:03:12.524Z,46.15
2019-05-06T21:05:46.056Z,45.84
2019-05-06T21:08:22.106Z,46.00
2019-05-06T21:10:54.366Z,46.41
2019-05-06T21:13:31.780Z,46.60
2019-05-06T21:16:02.306Z,46.88
2019-05-06T21:18:34.897Z,47.14
2019-05-06T21:21:07.318Z,47.32
2019-05-06T21:23:40.248Z,47.71
2019-05-06T21:26:13.640Z,47.56
2019-05-06T21:28:46.775Z,47.63
2019-05-06T21:31:21.386Z,47.61
2019-05-06T21:33:54.410Z,47.85
2019-05-06T21:36:26.665Z,47.42
2019-05-06T21:38:58.539Z,47.39
2019-05-06T21:41:32.623Z,47.66
2019-05-06T21:44:03.985Z,47.55
2019-05-06T21:46:35.857Z,47.60
2019-05-06T21:49:07.726Z,47.80
2019-05-06T21:51:39.758Z,47.82
2019-05-06T21:54:12.627Z,48.43
2019-05-06T21:56:44.731Z,48.68
2019-05-06T21:59:16.589Z,48.68
2019-05-06T22:01:48.608Z,49.18
2019-05-06T22:04:23.004Z,49.20
2019-05-06T22:06:55.549Z,49.40
2019-05-06T22:09:27.356Z,49.86
2019-05-06T22:11:59.561Z,49.71
2019-05-06T22:14:32.578Z,50.16
2019-05-06T22:17:06.306Z,50.04
2019-05-06T22:19:38.177Z,50.21
2019-05-06T22:22:12.063Z,51.26
2019-05-06T22:24:54.962Z,50.64
2019-05-06T22:27:22.972Z,50.91
2019-05-06T22:29:54.956Z,51.31
2019-05-06T22:32:26.896Z,51.55
2019-05-06T22:34:58.794Z,52.00
2019-05-06T22:37:30.689Z,51.67
2019-05-06T22:40:02.595Z,51.90
2019-05-06T22:42:35.463Z,52.13
2019-05-06T22:45:07.424Z,52.29
2019-05-06T22:47:42.089Z,51.98
2019-05-06T22:50:14.437Z,52.45
2019-05-06T22:52:46.568Z,52.48
2019-05-06T22:55:18.456Z,52.72
2019-05-06T22:57:50.355Z,52.71
2019-05-06T23:00:23.832Z,52.98
2019-05-06T23:03:02.798Z,52.85
2019-05-06T23:05:34.736Z,52.64
2019-05-06T23:08:06.591Z,53.17
2019-05-06T23:10:38.497Z,54.11
2019-05-06T23:13:12.477Z,54.33
2019-05-06T23:15:43.893Z,54.47
2019-05-06T23:18:15.781Z,55.08
2019-05-06T23:20:47.668Z,55.42
2019-05-06T23:23:22.112Z,55.85
2019-05-06T23:26:10.342Z,55.76
2019-05-06T23:28:43.679Z,56.43
2019-05-06T23:31:15.686Z,56.59
2019-05-06T23:33:48.475Z,56.18
2019-05-06T23:36:20.448Z,56.47
2019-05-06T23:39:27.819Z,56.78
2019-05-06T23:42:35.196Z,56.99
2019-05-06T23:45:42.578Z,57.08
2019-05-06T23:48:51.789Z,57.54
2019-05-06T23:51:58.812Z,57.51
2019-05-06T23:55:06.111Z,57.62
2019-05-06T23:57:36.245Z,57.34
